Mimmo Ievoli — ICLN — position and weather

sailwx.info

Track history (hours):
 
Tides and Currents Weather Stations Pressure Air Temp Water Temp Dewpoint Dewpoint Depression Visibility Wind Speed Wind Dir Waves Ship Positions

Mimmo Ievoli

Last reported at 2018-Jan-19 13:29 UTC. Time now 2018-Jan-19 13:45 UTC.
Position N 51°03' E 002°20'.

Length 125 m; draft 6.3 m.

Type: Ship (hazmat cat A). MMSI: 247253200.

Date/timePositionNaut miles runAvg speedWind from/ knotsBaromVisibWave heightAir tempDewpointWater temp
2018-Jan-19 13:29N 51°03' E 002°20'0 0.1
2018-Jan-19 12:58N 51°03' E 002°20'1 2.2
2018-Jan-19 12:30N 51°04' E 002°21'714.9
2018-Jan-19 12:00N 51°03' E 002°10'815.8
2018-Jan-19 11:30N 51°03' E 001°57'4 8.6
2018-Jan-19 11:00N 51°04' E 001°51'0 0.4
2018-Jan-19 10:29N 51°04' E 001°51'0 0.4
2018-Jan-19 09:59N 51°04' E 001°51'0 0.1
2018-Jan-19 09:29N 51°04' E 001°51'0 0.0
2018-Jan-19 08:59N 51°04' E 001°51'0 0.0
2018-Jan-19 08:29N 51°04' E 001°51'0 0.0
2018-Jan-19 07:59N 51°04' E 001°51'0 0.1
2018-Jan-19 07:29N 51°04' E 001°51'0 0.1
2018-Jan-19 06:59N 51°04' E 001°51'0 0.2
2018-Jan-19 06:29N 51°04' E 001°51'0 0.1
2018-Jan-19 06:00N 51°04' E 001°51'0 0.1
2018-Jan-19 05:29N 51°04' E 001°51'0 0.0
2018-Jan-19 04:59N 51°04' E 001°51'0 0.0
2018-Jan-19 04:29N 51°04' E 001°51'0 0.0
2018-Jan-19 03:59N 51°04' E 001°51'0 0.0
2018-Jan-19 03:29N 51°04' E 001°51'0 0.0
2018-Jan-19 02:59N 51°04' E 001°51'0 0.0
2018-Jan-19 02:29N 51°04' E 001°51'0 0.0
2018-Jan-19 01:59N 51°04' E 001°51'0 0.0
2018-Jan-19 01:29N 51°05' E 001°51'0 0.0
2018-Jan-19 00:59N 51°05' E 001°51'0 0.0
2018-Jan-19 00:29N 51°04' E 001°51'0 0.0
2018-Jan-18 23:59N 51°04' E 001°51'0 0.1
2018-Jan-18 23:29N 51°04' E 001°51'0 0.1
2018-Jan-18 22:59N 51°04' E 001°51'0 0.0
2018-Jan-18 22:29N 51°04' E 001°51'0 0.1
2018-Jan-18 21:59N 51°04' E 001°51'0 0.3
2018-Jan-18 21:29N 51°04' E 001°51'0 0.0
2018-Jan-18 20:59N 51°04' E 001°51'0 0.0
2018-Jan-18 20:29N 51°04' E 001°51'0 0.0
2018-Jan-18 19:59N 51°04' E 001°51'0 0.0
2018-Jan-18 19:29N 51°04' E 001°51'0 0.2
2018-Jan-18 18:59N 51°04' E 001°51'0 0.2
2018-Jan-18 18:29N 51°04' E 001°51'0 0.1
2018-Jan-18 17:59N 51°04' E 001°51'0 0.0
2018-Jan-18 17:29N 51°04' E 001°51'0 0.0
2018-Jan-18 16:59N 51°04' E 001°51'0 0.0
2018-Jan-18 16:29N 51°04' E 001°51'0 0.0
2018-Jan-18 15:59N 51°04' E 001°51'3 5.9
2018-Jan-18 15:31N 51°05' E 001°47'611.1
2018-Jan-18 15:00N 51°10' E 001°42'4 8.7
2018-Jan-18 14:30N 51°13' E 001°46'4 8.6
2018-Jan-18 14:00N 51°17' E 001°50'4 8.5
2018-Jan-18 13:31N 51°21' E 001°53'4 8.6
2018-Jan-18 13:00N 51°24' E 001°57'4 8.5
2018-Jan-18 12:30N 51°28' E 002°00'4 8.5
2018-Jan-18 12:00N 51°32' E 002°03'4 8.7
2018-Jan-18 11:30N 51°35' E 002°08'5 8.9
2018-Jan-18 11:00N 51°39' E 002°12'56 5.9
2018-Jan-18 01:33N 52°04' E 003°33'2 9.3
2018-Jan-18 01:21N 52°04' E 003°36'4 9.6
2018-Jan-18 00:59N 52°04' E 003°41'10 9.9
2018-Jan-18 00:00N 52°03' E 003°57'110.8
2018-Jan-17 23:57N 52°02' E 003°58'  
2018-Jan-12 12:50N 51°54' E 003°29'0 0.0
2018-Jan-12 12:20N 51°54' E 003°29'0 0.0
2018-Jan-12 11:56N 51°54' E 003°29'0 0.0
2018-Jan-12 11:26N 51°54' E 003°29'0 0.1
2018-Jan-12 10:50N 51°54' E 003°29'0 0.0
2018-Jan-12 10:26N 51°54' E 003°29'0 0.0
2018-Jan-12 09:56N 51°54' E 003°29'0 0.0
2018-Jan-11 23:33N 51°54' E 003°28'0 6.3
2018-Jan-11 23:30N 51°54' E 003°28'6 8.7
2018-Jan-11 22:46N 51°54' E 003°18'3813.7
2018-Jan-11 20:00N 51°36' E 002°24'713.6
2018-Jan-11 19:30N 51°31' E 002°16'713.5
2018-Jan-11 19:00N 51°25' E 002°11'713.5
2018-Jan-11 18:30N 51°19' E 002°07'713.3
2018-Jan-11 18:00N 51°13' E 002°03'713.1
2018-Jan-11 17:30N 51°10' E 001°54'612.7
2018-Jan-11 17:00N 51°07' E 001°45'612.5
2018-Jan-11 16:30N 51°02' E 001°38'612.3
2018-Jan-11 16:00N 50°58' E 001°32'611.8
2018-Jan-11 15:30N 50°52' E 001°27'611.6
2018-Jan-11 15:00N 50°47' E 001°25'4711.7
2018-Jan-11 11:01N 50°23' E 000°21'112.1
2018-Jan-11 10:55N 50°23' E 000°20'512.1
2018-Jan-11 10:30N 50°22' E 000°12'612.1
2018-Jan-11 10:00N 50°20' E 000°03'612.1
2018-Jan-11 09:30N 50°18' W 000°06'611.5
2018-Jan-11 09:00N 50°17' W 000°15'611.3
2018-Jan-11 08:26N 50°15' W 000°25'511.7
2018-Jan-11 08:00N 50°14' W 000°32'8613.6
2018-Jan-11 01:40N 49°52' W 002°42'213.5
2018-Jan-11 01:29N 49°51' W 002°45'1413.2
2018-Jan-11 00:24N 49°44' W 003°05'  
Track history (hours):
 
Tides and Currents Weather Stations Pressure Air Temp Water Temp Dewpoint Dewpoint Depression Visibility Wind Speed Wind Dir Waves Ship Positions

Mimmo Ievoli

Last reported at 2018-Jan-19 13:29 UTC. Time now 2018-Jan-19 13:45 UTC.
Position N 51°03' E 002°20'.

Length 125 m; draft 6.3 m.

Type: Ship (hazmat cat A). MMSI: 247253200.

Date/timePositionNaut miles runAvg speedWind from/ knotsBaromVisibWave heightAir tempDewpointWater temp
2018-Jan-19 13:29N 51°03' E 002°20'0 0.1
2018-Jan-19 12:58N 51°03' E 002°20'1 2.2
2018-Jan-19 12:30N 51°04' E 002°21'714.9
2018-Jan-19 12:00N 51°03' E 002°10'815.8
2018-Jan-19 11:30N 51°03' E 001°57'4 8.6
2018-Jan-19 11:00N 51°04' E 001°51'0 0.4
2018-Jan-19 10:29N 51°04' E 001°51'0 0.4
2018-Jan-19 09:59N 51°04' E 001°51'0 0.1
2018-Jan-19 09:29N 51°04' E 001°51'0 0.0
2018-Jan-19 08:59N 51°04' E 001°51'0 0.0
2018-Jan-19 08:29N 51°04' E 001°51'0 0.0
2018-Jan-19 07:59N 51°04' E 001°51'0 0.1
2018-Jan-19 07:29N 51°04' E 001°51'0 0.1
2018-Jan-19 06:59N 51°04' E 001°51'0 0.2
2018-Jan-19 06:29N 51°04' E 001°51'0 0.1
2018-Jan-19 06:00N 51°04' E 001°51'0 0.1
2018-Jan-19 05:29N 51°04' E 001°51'0 0.0
2018-Jan-19 04:59N 51°04' E 001°51'0 0.0
2018-Jan-19 04:29N 51°04' E 001°51'0 0.0
2018-Jan-19 03:59N 51°04' E 001°51'0 0.0
2018-Jan-19 03:29N 51°04' E 001°51'0 0.0
2018-Jan-19 02:59N 51°04' E 001°51'0 0.0
2018-Jan-19 02:29N 51°04' E 001°51'0 0.0
2018-Jan-19 01:59N 51°04' E 001°51'0 0.0
2018-Jan-19 01:29N 51°05' E 001°51'0 0.0
2018-Jan-19 00:59N 51°05' E 001°51'0 0.0
2018-Jan-19 00:29N 51°04' E 001°51'0 0.0
2018-Jan-18 23:59N 51°04' E 001°51'0 0.1
2018-Jan-18 23:29N 51°04' E 001°51'0 0.1
2018-Jan-18 22:59N 51°04' E 001°51'0 0.0
2018-Jan-18 22:29N 51°04' E 001°51'0 0.1
2018-Jan-18 21:59N 51°04' E 001°51'0 0.3
2018-Jan-18 21:29N 51°04' E 001°51'0 0.0
2018-Jan-18 20:59N 51°04' E 001°51'0 0.0
2018-Jan-18 20:29N 51°04' E 001°51'0 0.0
2018-Jan-18 19:59N 51°04' E 001°51'0 0.0
2018-Jan-18 19:29N 51°04' E 001°51'0 0.2
2018-Jan-18 18:59N 51°04' E 001°51'0 0.2
2018-Jan-18 18:29N 51°04' E 001°51'0 0.1
2018-Jan-18 17:59N 51°04' E 001°51'0 0.0
2018-Jan-18 17:29N 51°04' E 001°51'0 0.0
2018-Jan-18 16:59N 51°04' E 001°51'0 0.0
2018-Jan-18 16:29N 51°04' E 001°51'0 0.0
2018-Jan-18 15:59N 51°04' E 001°51'3 5.9
2018-Jan-18 15:31N 51°05' E 001°47'611.1
2018-Jan-18 15:00N 51°10' E 001°42'4 8.7
2018-Jan-18 14:30N 51°13' E 001°46'4 8.6
2018-Jan-18 14:00N 51°17' E 001°50'4 8.5
2018-Jan-18 13:31N 51°21' E 001°53'4 8.6
2018-Jan-18 13:00N 51°24' E 001°57'4 8.5
2018-Jan-18 12:30N 51°28' E 002°00'4 8.5
2018-Jan-18 12:00N 51°32' E 002°03'4 8.7
2018-Jan-18 11:30N 51°35' E 002°08'5 8.9
2018-Jan-18 11:00N 51°39' E 002°12'56 5.9
2018-Jan-18 01:33N 52°04' E 003°33'2 9.3
2018-Jan-18 01:21N 52°04' E 003°36'4 9.6
2018-Jan-18 00:59N 52°04' E 003°41'10 9.9
2018-Jan-18 00:00N 52°03' E 003°57'110.8
2018-Jan-17 23:57N 52°02' E 003°58'  
2018-Jan-12 12:50N 51°54' E 003°29'0 0.0
2018-Jan-12 12:20N 51°54' E 003°29'0 0.0
2018-Jan-12 11:56N 51°54' E 003°29'0 0.0
2018-Jan-12 11:26N 51°54' E 003°29'0 0.1
2018-Jan-12 10:50N 51°54' E 003°29'0 0.0
2018-Jan-12 10:26N 51°54' E 003°29'0 0.0
2018-Jan-12 09:56N 51°54' E 003°29'0 0.0
2018-Jan-11 23:33N 51°54' E 003°28'0 6.3
2018-Jan-11 23:30N 51°54' E 003°28'6 8.7
2018-Jan-11 22:46N 51°54' E 003°18'3813.7
2018-Jan-11 20:00N 51°36' E 002°24'713.6
2018-Jan-11 19:30N 51°31' E 002°16'713.5
2018-Jan-11 19:00N 51°25' E 002°11'713.5
2018-Jan-11 18:30N 51°19' E 002°07'713.3
2018-Jan-11 18:00N 51°13' E 002°03'713.1
2018-Jan-11 17:30N 51°10' E 001°54'612.7
2018-Jan-11 17:00N 51°07' E 001°45'612.5
2018-Jan-11 16:30N 51°02' E 001°38'612.3
2018-Jan-11 16:00N 50°58' E 001°32'611.8
2018-Jan-11 15:30N 50°52' E 001°27'611.6
2018-Jan-11 15:00N 50°47' E 001°25'4711.7
2018-Jan-11 11:01N 50°23' E 000°21'112.1
2018-Jan-11 10:55N 50°23' E 000°20'512.1
2018-Jan-11 10:30N 50°22' E 000°12'612.1
2018-Jan-11 10:00N 50°20' E 000°03'612.1
2018-Jan-11 09:30N 50°18' W 000°06'611.5
2018-Jan-11 09:00N 50°17' W 000°15'611.3
2018-Jan-11 08:26N 50°15' W 000°25'511.7
2018-Jan-11 08:00N 50°14' W 000°32'8613.6
2018-Jan-11 01:40N 49°52' W 002°42'213.5
2018-Jan-11 01:29N 49°51' W 002°45'1413.2
2018-Jan-11 00:24N 49°44' W 003°05'  

Dump ship's entire track history